sensor_id;sensor_type;location;lat;lon;timestamp;P1;P2;P0
49454;PMS5003;49011;64.658;21.218;2022-07-03T00:01:46;6;6;
49454;PMS5003;49011;64.658;21.218;2022-07-03T00:04:13;6;6;
49454;PMS5003;49011;64.658;21.218;2022-07-03T00:06:40;5;5;
49454;PMS5003;49011;64.658;21.218;2022-07-03T00:09:08;5;5;
49454;PMS5003;49011;64.658;21.218;2022-07-03T00:11:35;7;7;
49454;PMS5003;49011;64.658;21.218;2022-07-03T00:14:03;6;6;
49454;PMS5003;49011;64.658;21.218;2022-07-03T00:16:30;5;5;
49454;PMS5003;49011;64.658;21.218;2022-07-03T00:18:58;6;6;
49454;PMS5003;49011;64.658;21.218;2022-07-03T00:21:26;6;5;
49454;PMS5003;49011;64.658;21.218;2022-07-03T00:23:56;6;6;
49454;PMS5003;49011;64.658;21.218;2022-07-03T00:26:29;7;6;
49454;PMS5003;49011;64.658;21.218;2022-07-03T00:29:00;5;5;
49454;PMS5003;49011;64.658;21.218;2022-07-03T00:31:30;4;4;
49454;PMS5003;49011;64.658;21.218;2022-07-03T00:34:00;5;5;
49454;PMS5003;49011;64.658;21.218;2022-07-03T00:36:35;4;3;
49454;PMS5003;49011;64.658;21.218;2022-07-03T00:39:04;4;4;
49454;PMS5003;49011;64.658;21.218;2022-07-03T00:41:32;5;5;
49454;PMS5003;49011;64.658;21.218;2022-07-03T00:44:01;4;4;
49454;PMS5003;49011;64.658;21.218;2022-07-03T00:46:29;5;5;
49454;PMS5003;49011;64.658;21.218;2022-07-03T00:48:58;6;5;
49454;PMS5003;49011;64.658;21.218;2022-07-03T00:51:27;5;5;
49454;PMS5003;49011;64.658;21.218;2022-07-03T00:53:56;5;5;
49454;PMS5003;49011;64.658;21.218;2022-07-03T00:56:26;6;6;
49454;PMS5003;49011;64.658;21.218;2022-07-03T00:58:56;6;6;
49454;PMS5003;49011;64.658;21.218;2022-07-03T01:01:26;5;5;
49454;PMS5003;49011;64.658;21.218;2022-07-03T01:04:00;4;4;
49454;PMS5003;49011;64.658;21.218;2022-07-03T01:06:39;5;5;
49454;PMS5003;49011;64.658;21.218;2022-07-03T01:09:14;6;6;
49454;PMS5003;49011;64.658;21.218;2022-07-03T01:11:48;6;6;
49454;PMS5003;49011;64.658;21.218;2022-07-03T01:14:23;4;4;
49454;PMS5003;49011;64.658;21.218;2022-07-03T01:16:55;6;5;
49454;PMS5003;49011;64.658;21.218;2022-07-03T01:19:41;7;6;
49454;PMS5003;49011;64.658;21.218;2022-07-03T01:22:17;6;5;
49454;PMS5003;49011;64.658;21.218;2022-07-03T01:24:56;4;4;
49454;PMS5003;49011;64.658;21.218;2022-07-03T01:27:41;5;5;
49454;PMS5003;49011;64.658;21.218;2022-07-03T01:30:17;7;6;
49454;PMS5003;49011;64.658;21.218;2022-07-03T01:32:49;7;6;
49454;PMS5003;49011;64.658;21.218;2022-07-03T01:35:27;6;6;
49454;PMS5003;49011;64.658;21.218;2022-07-03T01:38:01;7;6;
49454;PMS5003;49011;64.658;21.218;2022-07-03T01:40:33;6;6;
49454;PMS5003;49011;64.658;21.218;2022-07-03T01:43:01;6;6;
49454;PMS5003;49011;64.658;21.218;2022-07-03T01:45:31;6;6;
49454;PMS5003;49011;64.658;21.218;2022-07-03T01:48:01;7;7;
49454;PMS5003;49011;64.658;21.218;2022-07-03T01:50:32;5;5;
49454;PMS5003;49011;64.658;21.218;2022-07-03T01:53:00;9;8;
49454;PMS5003;49011;64.658;21.218;2022-07-03T01:55:30;5;5;
49454;PMS5003;49011;64.658;21.218;2022-07-03T01:57:59;4;4;
49454;PMS5003;49011;64.658;21.218;2022-07-03T02:00:27;4;4;
49454;PMS5003;49011;64.658;21.218;2022-07-03T02:02:57;4;4;
49454;PMS5003;49011;64.658;21.218;2022-07-03T02:05:31;5;5;
49454;PMS5003;49011;64.658;21.218;2022-07-03T02:08:03;4;4;
49454;PMS5003;49011;64.658;21.218;2022-07-03T02:10:38;6;6;
49454;PMS5003;49011;64.658;21.218;2022-07-03T02:13:07;6;6;
49454;PMS5003;49011;64.658;21.218;2022-07-03T02:15:44;3;3;
49454;PMS5003;49011;64.658;21.218;2022-07-03T02:18:20;5;5;
49454;PMS5003;49011;64.658;21.218;2022-07-03T02:20:56;6;6;
49454;PMS5003;49011;64.658;21.218;2022-07-03T02:23:31;4;4;
49454;PMS5003;49011;64.658;21.218;2022-07-03T02:26:09;5;5;
49454;PMS5003;49011;64.658;21.218;2022-07-03T02:28:50;7;6;
49454;PMS5003;49011;64.658;21.218;2022-07-03T02:31:25;4;4;
49454;PMS5003;49011;64.658;21.218;2022-07-03T02:33:56;4;4;
49454;PMS5003;49011;64.658;21.218;2022-07-03T02:36:27;6;6;
49454;PMS5003;49011;64.658;21.218;2022-07-03T02:38:55;7;6;
49454;PMS5003;49011;64.658;21.218;2022-07-03T02:41:27;4;4;
49454;PMS5003;49011;64.658;21.218;2022-07-03T02:44:14;5;5;
49454;PMS5003;49011;64.658;21.218;2022-07-03T02:46:52;6;6;
49454;PMS5003;49011;64.658;21.218;2022-07-03T02:49:42;4;4;
49454;PMS5003;49011;64.658;21.218;2022-07-03T02:52:24;4;4;
49454;PMS5003;49011;64.658;21.218;2022-07-03T02:55:02;7;7;
49454;PMS5003;49011;64.658;21.218;2022-07-03T02:57:36;6;6;
49454;PMS5003;49011;64.658;21.218;2022-07-03T03:00:06;5;5;
49454;PMS5003;49011;64.658;21.218;2022-07-03T03:02:38;6;6;
49454;PMS5003;49011;64.658;21.218;2022-07-03T03:05:21;5;5;
49454;PMS5003;49011;64.658;21.218;2022-07-03T03:08:11;6;6;
49454;PMS5003;49011;64.658;21.218;2022-07-03T03:10:43;6;6;
49454;PMS5003;49011;64.658;21.218;2022-07-03T03:13:14;6;6;
49454;PMS5003;49011;64.658;21.218;2022-07-03T03:15:43;7;7;
49454;PMS5003;49011;64.658;21.218;2022-07-03T03:18:21;5;4;
49454;PMS5003;49011;64.658;21.218;2022-07-03T03:20:52;7;7;
49454;PMS5003;49011;64.658;21.218;2022-07-03T03:23:26;5;5;
49454;PMS5003;49011;64.658;21.218;2022-07-03T03:26:04;5;5;
49454;PMS5003;49011;64.658;21.218;2022-07-03T03:28:31;7;6;
49454;PMS5003;49011;64.658;21.218;2022-07-03T03:31:00;4;4;
49454;PMS5003;49011;64.658;21.218;2022-07-03T03:33:28;5;5;
49454;PMS5003;49011;64.658;21.218;2022-07-03T03:35:55;5;5;
49454;PMS5003;49011;64.658;21.218;2022-07-03T03:38:23;5;5;
49454;PMS5003;49011;64.658;21.218;2022-07-03T03:40:50;4;4;
49454;PMS5003;49011;64.658;21.218;2022-07-03T03:43:18;4;4;
49454;PMS5003;49011;64.658;21.218;2022-07-03T03:45:47;7;6;
49454;PMS5003;49011;64.658;21.218;2022-07-03T03:48:14;2;2;
49454;PMS5003;49011;64.658;21.218;2022-07-03T03:50:41;3;3;
49454;PMS5003;49011;64.658;21.218;2022-07-03T03:53:09;2;2;
49454;PMS5003;49011;64.658;21.218;2022-07-03T03:55:52;2;2;
49454;PMS5003;49011;64.658;21.218;2022-07-03T03:58:21;1;1;
49454;PMS5003;49011;64.658;21.218;2022-07-03T04:00:48;1;1;
49454;PMS5003;49011;64.658;21.218;2022-07-03T04:03:15;2;2;
49454;PMS5003;49011;64.658;21.218;2022-07-03T04:05:42;1;1;
49454;PMS5003;49011;64.658;21.218;2022-07-03T04:08:10;1;1;
49454;PMS5003;49011;64.658;21.218;2022-07-03T04:10:37;1;1;
49454;PMS5003;49011;64.658;21.218;2022-07-03T04:13:04;2;2;
49454;PMS5003;49011;64.658;21.218;2022-07-03T04:15:32;1;1;
49454;PMS5003;49011;64.658;21.218;2022-07-03T04:17:59;1;1;
49454;PMS5003;49011;64.658;21.218;2022-07-03T04:20:27;1;1;
49454;PMS5003;49011;64.658;21.218;2022-07-03T04:22:54;1;1;
49454;PMS5003;49011;64.658;21.218;2022-07-03T04:25:21;1;1;
49454;PMS5003;49011;64.658;21.218;2022-07-03T04:27:48;0;0;
49454;PMS5003;49011;64.658;21.218;2022-07-03T04:30:15;0;0;
49454;PMS5003;49011;64.658;21.218;2022-07-03T04:32:42;0;0;
49454;PMS5003;49011;64.658;21.218;2022-07-03T04:35:09;1;1;
49454;PMS5003;49011;64.658;21.218;2022-07-03T04:37:37;0;0;
49454;PMS5003;49011;64.658;21.218;2022-07-03T04:40:04;1;1;
49454;PMS5003;49011;64.658;21.218;2022-07-03T04:42:33;1;1;
49454;PMS5003;49011;64.658;21.218;2022-07-03T04:45:00;0;0;
49454;PMS5003;49011;64.658;21.218;2022-07-03T04:47:27;1;1;
49454;PMS5003;49011;64.658;21.218;2022-07-03T04:49:55;0;0;
49454;PMS5003;49011;64.658;21.218;2022-07-03T04:52:22;1;1;
49454;PMS5003;49011;64.658;21.218;2022-07-03T04:54:49;1;1;
49454;PMS5003;49011;64.658;21.218;2022-07-03T04:57:16;2;1;
49454;PMS5003;49011;64.658;21.218;2022-07-03T04:59:43;0;0;
49454;PMS5003;49011;64.658;21.218;2022-07-03T05:02:10;0;0;
49454;PMS5003;49011;64.658;21.218;2022-07-03T05:04:37;0;0;
49454;PMS5003;49011;64.658;21.218;2022-07-03T05:07:04;0;0;
49454;PMS5003;49011;64.658;21.218;2022-07-03T05:09:32;0;0;
49454;PMS5003;49011;64.658;21.218;2022-07-03T05:11:59;0;0;
49454;PMS5003;49011;64.658;21.218;2022-07-03T05:14:27;1;1;
49454;PMS5003;49011;64.658;21.218;2022-07-03T05:16:54;1;1;
49454;PMS5003;49011;64.658;21.218;2022-07-03T05:19:21;0;0;
49454;PMS5003;49011;64.658;21.218;2022-07-03T05:21:48;0;0;
49454;PMS5003;49011;64.658;21.218;2022-07-03T05:24:15;0;0;
49454;PMS5003;49011;64.658;21.218;2022-07-03T05:26:42;0;0;
49454;PMS5003;49011;64.658;21.218;2022-07-03T05:29:09;0;0;
49454;PMS5003;49011;64.658;21.218;2022-07-03T05:31:36;0;0;
49454;PMS5003;49011;64.658;21.218;2022-07-03T05:34:03;0;0;
49454;PMS5003;49011;64.658;21.218;2022-07-03T05:36:31;0;0;
49454;PMS5003;49011;64.658;21.218;2022-07-03T05:38:59;0;0;
49454;PMS5003;49011;64.658;21.218;2022-07-03T05:41:26;0;0;
49454;PMS5003;49011;64.658;21.218;2022-07-03T05:43:52;0;0;
49454;PMS5003;49011;64.658;21.218;2022-07-03T05:46:20;0;0;
49454;PMS5003;49011;64.658;21.218;2022-07-03T05:48:47;0;0;
49454;PMS5003;49011;64.658;21.218;2022-07-03T05:51:14;0;0;
49454;PMS5003;49011;64.658;21.218;2022-07-03T05:53:41;0;0;
49454;PMS5003;49011;64.658;21.218;2022-07-03T05:56:09;0;0;
49454;PMS5003;49011;64.658;21.218;2022-07-03T05:58:36;0;0;
49454;PMS5003;49011;64.658;21.218;2022-07-03T06:01:03;0;0;
49454;PMS5003;49011;64.658;21.218;2022-07-03T06:03:30;0;0;
49454;PMS5003;49011;64.658;21.218;2022-07-03T06:05:58;0;0;
49454;PMS5003;49011;64.658;21.218;2022-07-03T06:08:31;0;0;
49454;PMS5003;49011;64.658;21.218;2022-07-03T06:10:59;0;0;
49454;PMS5003;49011;64.658;21.218;2022-07-03T06:13:26;0;0;
49454;PMS5003;49011;64.658;21.218;2022-07-03T06:15:53;1;1;
49454;PMS5003;49011;64.658;21.218;2022-07-03T06:18:20;0;0;
49454;PMS5003;49011;64.658;21.218;2022-07-03T06:20:47;1;1;
49454;PMS5003;49011;64.658;21.218;2022-07-03T06:23:14;0;0;
49454;PMS5003;49011;64.658;21.218;2022-07-03T06:25:41;0;0;
49454;PMS5003;49011;64.658;21.218;2022-07-03T06:28:08;0;0;
49454;PMS5003;49011;64.658;21.218;2022-07-03T06:30:35;0;0;
49454;PMS5003;49011;64.658;21.218;2022-07-03T06:33:02;0;0;
49454;PMS5003;49011;64.658;21.218;2022-07-03T06:35:29;0;0;
49454;PMS5003;49011;64.658;21.218;2022-07-03T06:38:00;0;0;
49454;PMS5003;49011;64.658;21.218;2022-07-03T06:40:28;0;0;
49454;PMS5003;49011;64.658;21.218;2022-07-03T06:42:56;0;0;
49454;PMS5003;49011;64.658;21.218;2022-07-03T06:45:24;0;0;
49454;PMS5003;49011;64.658;21.218;2022-07-03T06:47:51;0;0;
49454;PMS5003;49011;64.658;21.218;2022-07-03T06:50:18;0;0;
49454;PMS5003;49011;64.658;21.218;2022-07-03T06:52:46;0;0;
49454;PMS5003;49011;64.658;21.218;2022-07-03T06:55:13;1;0;
49454;PMS5003;49011;64.658;21.218;2022-07-03T06:57:40;0;0;
49454;PMS5003;49011;64.658;21.218;2022-07-03T07:00:07;0;0;
49454;PMS5003;49011;64.658;21.218;2022-07-03T07:02:36;0;0;
49454;PMS5003;49011;64.658;21.218;2022-07-03T07:05:03;0;0;
49454;PMS5003;49011;64.658;21.218;2022-07-03T07:07:31;0;0;
49454;PMS5003;49011;64.658;21.218;2022-07-03T07:09:59;0;0;
49454;PMS5003;49011;64.658;21.218;2022-07-03T07:12:26;0;0;
49454;PMS5003;49011;64.658;21.218;2022-07-03T07:14:53;0;0;
49454;PMS5003;49011;64.658;21.218;2022-07-03T07:17:20;0;0;
49454;PMS5003;49011;64.658;21.218;2022-07-03T07:19:47;0;0;
49454;PMS5003;49011;64.658;21.218;2022-07-03T07:22:14;0;0;
49454;PMS5003;49011;64.658;21.218;2022-07-03T07:24:41;0;0;
49454;PMS5003;49011;64.658;21.218;2022-07-03T07:27:08;0;0;
49454;PMS5003;49011;64.658;21.218;2022-07-03T07:29:35;0;0;
49454;PMS5003;49011;64.658;21.218;2022-07-03T07:32:02;0;0;
49454;PMS5003;49011;64.658;21.218;2022-07-03T07:34:30;0;0;
49454;PMS5003;49011;64.658;21.218;2022-07-03T07:36:57;0;0;
49454;PMS5003;49011;64.658;21.218;2022-07-03T07:39:24;0;0;
49454;PMS5003;49011;64.658;21.218;2022-07-03T07:41:51;0;0;
49454;PMS5003;49011;64.658;21.218;2022-07-03T07:44:18;0;0;
49454;PMS5003;49011;64.658;21.218;2022-07-03T07:46:45;0;0;
49454;PMS5003;49011;64.658;21.218;2022-07-03T07:49:12;0;0;
49454;PMS5003;49011;64.658;21.218;2022-07-03T07:51:40;0;0;
49454;PMS5003;49011;64.658;21.218;2022-07-03T07:54:07;0;0;
49454;PMS5003;49011;64.658;21.218;2022-07-03T07:56:34;0;0;
49454;PMS5003;49011;64.658;21.218;2022-07-03T07:59:02;0;0;
49454;PMS5003;49011;64.658;21.218;2022-07-03T08:01:29;0;0;
49454;PMS5003;49011;64.658;21.218;2022-07-03T08:03:56;0;0;
49454;PMS5003;49011;64.658;21.218;2022-07-03T08:06:23;0;0;
49454;PMS5003;49011;64.658;21.218;2022-07-03T08:08:50;0;0;
49454;PMS5003;49011;64.658;21.218;2022-07-03T08:11:17;0;0;
49454;PMS5003;49011;64.658;21.218;2022-07-03T08:13:44;0;0;
49454;PMS5003;49011;64.658;21.218;2022-07-03T08:16:11;0;0;
49454;PMS5003;49011;64.658;21.218;2022-07-03T08:18:38;0;0;
49454;PMS5003;49011;64.658;21.218;2022-07-03T08:21:05;0;0;
49454;PMS5003;49011;64.658;21.218;2022-07-03T08:23:33;0;0;
49454;PMS5003;49011;64.658;21.218;2022-07-03T08:26:01;0;0;
49454;PMS5003;49011;64.658;21.218;2022-07-03T08:28:28;0;0;
49454;PMS5003;49011;64.658;21.218;2022-07-03T08:30:55;0;0;
49454;PMS5003;49011;64.658;21.218;2022-07-03T08:33:22;0;0;
49454;PMS5003;49011;64.658;21.218;2022-07-03T08:35:49;0;0;
49454;PMS5003;49011;64.658;21.218;2022-07-03T08:38:17;0;0;
49454;PMS5003;49011;64.658;21.218;2022-07-03T08:40:45;0;0;
49454;PMS5003;49011;64.658;21.218;2022-07-03T08:43:16;0;0;
49454;PMS5003;49011;64.658;21.218;2022-07-03T08:45:45;0;0;
49454;PMS5003;49011;64.658;21.218;2022-07-03T08:48:13;0;0;
49454;PMS5003;49011;64.658;21.218;2022-07-03T08:50:43;0;0;
49454;PMS5003;49011;64.658;21.218;2022-07-03T08:53:10;0;0;
49454;PMS5003;49011;64.658;21.218;2022-07-03T08:55:38;0;0;
49454;PMS5003;49011;64.658;21.218;2022-07-03T08:58:05;0;0;
49454;PMS5003;49011;64.658;21.218;2022-07-03T09:00:39;0;0;
49454;PMS5003;49011;64.658;21.218;2022-07-03T09:03:09;0;0;
49454;PMS5003;49011;64.658;21.218;2022-07-03T09:05:37;0;0;
49454;PMS5003;49011;64.658;21.218;2022-07-03T09:08:06;0;0;
49454;PMS5003;49011;64.658;21.218;2022-07-03T09:10:34;0;0;
49454;PMS5003;49011;64.658;21.218;2022-07-03T09:13:03;0;0;
49454;PMS5003;49011;64.658;21.218;2022-07-03T09:15:30;0;0;
49454;PMS5003;49011;64.658;21.218;2022-07-03T09:17:58;0;0;
49454;PMS5003;49011;64.658;21.218;2022-07-03T09:20:28;0;0;
49454;PMS5003;49011;64.658;21.218;2022-07-03T09:23:08;0;0;
49454;PMS5003;49011;64.658;21.218;2022-07-03T09:25:56;0;0;
49454;PMS5003;49011;64.658;21.218;2022-07-03T09:28:40;0;0;
49454;PMS5003;49011;64.658;21.218;2022-07-03T09:31:09;0;0;
49454;PMS5003;49011;64.658;21.218;2022-07-03T09:33:47;0;0;
49454;PMS5003;49011;64.658;21.218;2022-07-03T09:36:17;0;0;
49454;PMS5003;49011;64.658;21.218;2022-07-03T09:38:45;0;0;
49454;PMS5003;49011;64.658;21.218;2022-07-03T09:41:12;0;0;
49454;PMS5003;49011;64.658;21.218;2022-07-03T09:43:41;0;0;
49454;PMS5003;49011;64.658;21.218;2022-07-03T09:46:09;0;0;
49454;PMS5003;49011;64.658;21.218;2022-07-03T09:48:38;0;0;
49454;PMS5003;49011;64.658;21.218;2022-07-03T09:51:22;0;0;
49454;PMS5003;49011;64.658;21.218;2022-07-03T09:53:52;0;0;
49454;PMS5003;49011;64.658;21.218;2022-07-03T09:56:22;0;0;
49454;PMS5003;49011;64.658;21.218;2022-07-03T09:58:59;0;0;
49454;PMS5003;49011;64.658;21.218;2022-07-03T10:01:28;0;0;
49454;PMS5003;49011;64.658;21.218;2022-07-03T10:04:08;0;0;
49454;PMS5003;49011;64.658;21.218;2022-07-03T10:06:55;0;0;
49454;PMS5003;49011;64.658;21.218;2022-07-03T10:09:25;0;0;
49454;PMS5003;49011;64.658;21.218;2022-07-03T10:11:54;0;0;
49454;PMS5003;49011;64.658;21.218;2022-07-03T10:14:23;0;0;
49454;PMS5003;49011;64.658;21.218;2022-07-03T10:16:52;0;0;
49454;PMS5003;49011;64.658;21.218;2022-07-03T10:19:20;0;0;
49454;PMS5003;49011;64.658;21.218;2022-07-03T10:21:50;0;0;
49454;PMS5003;49011;64.658;21.218;2022-07-03T10:24:21;0;0;
49454;PMS5003;49011;64.658;21.218;2022-07-03T10:26:50;0;0;
49454;PMS5003;49011;64.658;21.218;2022-07-03T10:29:19;0;0;
49454;PMS5003;49011;64.658;21.218;2022-07-03T10:31:48;0;0;
49454;PMS5003;49011;64.658;21.218;2022-07-03T10:34:16;0;0;
49454;PMS5003;49011;64.658;21.218;2022-07-03T10:36:46;0;0;
49454;PMS5003;49011;64.658;21.218;2022-07-03T10:39:18;0;0;
49454;PMS5003;49011;64.658;21.218;2022-07-03T10:41:54;0;0;
49454;PMS5003;49011;64.658;21.218;2022-07-03T10:44:26;0;0;
49454;PMS5003;49011;64.658;21.218;2022-07-03T10:46:53;0;0;
49454;PMS5003;49011;64.658;21.218;2022-07-03T10:49:20;0;0;
49454;PMS5003;49011;64.658;21.218;2022-07-03T10:51:52;0;0;
49454;PMS5003;49011;64.658;21.218;2022-07-03T10:54:21;0;0;
49454;PMS5003;49011;64.658;21.218;2022-07-03T10:57:23;0;0;
49454;PMS5003;49011;64.658;21.218;2022-07-03T11:00:07;0;0;
49454;PMS5003;49011;64.658;21.218;2022-07-03T11:02:40;0;0;
49454;PMS5003;49011;64.658;21.218;2022-07-03T11:05:09;0;0;
49454;PMS5003;49011;64.658;21.218;2022-07-03T11:07:43;0;0;
49454;PMS5003;49011;64.658;21.218;2022-07-03T11:10:31;0;0;
49454;PMS5003;49011;64.658;21.218;2022-07-03T11:13:02;0;0;
49454;PMS5003;49011;64.658;21.218;2022-07-03T11:15:32;0;0;
49454;PMS5003;49011;64.658;21.218;2022-07-03T11:18:10;0;0;
49454;PMS5003;49011;64.658;21.218;2022-07-03T11:21:21;0;0;
49454;PMS5003;49011;64.658;21.218;2022-07-03T11:23:59;0;0;
49454;PMS5003;49011;64.658;21.218;2022-07-03T11:26:41;0;0;
49454;PMS5003;49011;64.658;21.218;2022-07-03T11:29:25;0;0;
49454;PMS5003;49011;64.658;21.218;2022-07-03T11:31:54;0;0;
49454;PMS5003;49011;64.658;21.218;2022-07-03T11:34:21;0;0;
49454;PMS5003;49011;64.658;21.218;2022-07-03T11:36:49;0;0;
49454;PMS5003;49011;64.658;21.218;2022-07-03T11:39:16;0;0;
49454;PMS5003;49011;64.658;21.218;2022-07-03T11:41:46;0;0;
49454;PMS5003;49011;64.658;21.218;2022-07-03T11:44:15;0;0;
49454;PMS5003;49011;64.658;21.218;2022-07-03T11:46:47;0;0;
49454;PMS5003;49011;64.658;21.218;2022-07-03T11:49:16;0;0;
49454;PMS5003;49011;64.658;21.218;2022-07-03T11:51:54;0;0;
49454;PMS5003;49011;64.658;21.218;2022-07-03T11:54:23;0;0;
49454;PMS5003;49011;64.658;21.218;2022-07-03T11:56:51;0;0;
49454;PMS5003;49011;64.658;21.218;2022-07-03T11:59:19;0;0;
49454;PMS5003;49011;64.658;21.218;2022-07-03T12:01:47;0;0;
49454;PMS5003;49011;64.658;21.218;2022-07-03T12:04:15;0;0;
49454;PMS5003;49011;64.658;21.218;2022-07-03T12:06:44;0;0;
49454;PMS5003;49011;64.658;21.218;2022-07-03T12:09:15;0;0;
49454;PMS5003;49011;64.658;21.218;2022-07-03T12:12:02;0;0;
49454;PMS5003;49011;64.658;21.218;2022-07-03T12:14:34;0;0;
49454;PMS5003;49011;64.658;21.218;2022-07-03T12:17:02;0;0;
49454;PMS5003;49011;64.658;21.218;2022-07-03T12:19:29;1;1;
49454;PMS5003;49011;64.658;21.218;2022-07-03T12:21:56;0;0;
49454;PMS5003;49011;64.658;21.218;2022-07-03T12:24:24;0;0;
49454;PMS5003;49011;64.658;21.218;2022-07-03T12:26:51;0;0;
49454;PMS5003;49011;64.658;21.218;2022-07-03T12:29:18;0;0;
49454;PMS5003;49011;64.658;21.218;2022-07-03T12:31:47;0;0;
49454;PMS5003;49011;64.658;21.218;2022-07-03T12:34:15;0;0;
49454;PMS5003;49011;64.658;21.218;2022-07-03T12:36:53;0;0;
49454;PMS5003;49011;64.658;21.218;2022-07-03T12:39:22;1;1;
49454;PMS5003;49011;64.658;21.218;2022-07-03T12:41:50;0;0;
49454;PMS5003;49011;64.658;21.218;2022-07-03T12:44:18;0;0;
49454;PMS5003;49011;64.658;21.218;2022-07-03T12:46:46;1;0;
49454;PMS5003;49011;64.658;21.218;2022-07-03T12:49:13;1;1;
49454;PMS5003;49011;64.658;21.218;2022-07-03T12:51:42;0;0;
49454;PMS5003;49011;64.658;21.218;2022-07-03T12:54:11;0;0;
49454;PMS5003;49011;64.658;21.218;2022-07-03T12:56:39;1;1;
49454;PMS5003;49011;64.658;21.218;2022-07-03T12:59:24;0;0;
49454;PMS5003;49011;64.658;21.218;2022-07-03T13:02:00;0;0;
49454;PMS5003;49011;64.658;21.218;2022-07-03T13:04:30;1;1;
49454;PMS5003;49011;64.658;21.218;2022-07-03T13:07:01;0;0;
49454;PMS5003;49011;64.658;21.218;2022-07-03T13:09:30;0;0;
49454;PMS5003;49011;64.658;21.218;2022-07-03T13:11:58;2;0;
49454;PMS5003;49011;64.658;21.218;2022-07-03T13:14:25;0;0;
49454;PMS5003;49011;64.658;21.218;2022-07-03T13:16:53;0;0;
49454;PMS5003;49011;64.658;21.218;2022-07-03T13:19:21;0;0;
49454;PMS5003;49011;64.658;21.218;2022-07-03T13:21:51;0;0;
49454;PMS5003;49011;64.658;21.218;2022-07-03T13:24:20;1;1;
49454;PMS5003;49011;64.658;21.218;2022-07-03T13:26:49;0;0;
49454;PMS5003;49011;64.658;21.218;2022-07-03T13:29:18;1;1;
49454;PMS5003;49011;64.658;21.218;2022-07-03T13:31:46;1;1;
49454;PMS5003;49011;64.658;21.218;2022-07-03T13:34:13;1;0;
49454;PMS5003;49011;64.658;21.218;2022-07-03T13:36:41;0;0;
49454;PMS5003;49011;64.658;21.218;2022-07-03T13:39:07;1;1;
49454;PMS5003;49011;64.658;21.218;2022-07-03T13:41:35;1;1;
49454;PMS5003;49011;64.658;21.218;2022-07-03T13:44:02;0;0;
49454;PMS5003;49011;64.658;21.218;2022-07-03T13:46:30;1;1;
49454;PMS5003;49011;64.658;21.218;2022-07-03T13:48:57;1;1;
49454;PMS5003;49011;64.658;21.218;2022-07-03T13:51:24;1;0;
49454;PMS5003;49011;64.658;21.218;2022-07-03T13:53:51;0;0;
49454;PMS5003;49011;64.658;21.218;2022-07-03T13:56:18;0;0;
49454;PMS5003;49011;64.658;21.218;2022-07-03T13:58:46;1;1;
49454;PMS5003;49011;64.658;21.218;2022-07-03T14:01:13;0;0;
49454;PMS5003;49011;64.658;21.218;2022-07-03T14:03:40;0;0;
49454;PMS5003;49011;64.658;21.218;2022-07-03T14:06:08;2;2;
49454;PMS5003;49011;64.658;21.218;2022-07-03T14:08:36;2;1;
49454;PMS5003;49011;64.658;21.218;2022-07-03T14:11:03;1;1;
49454;PMS5003;49011;64.658;21.218;2022-07-03T14:13:30;2;2;
49454;PMS5003;49011;64.658;21.218;2022-07-03T14:15:57;1;1;
49454;PMS5003;49011;64.658;21.218;2022-07-03T14:18:26;2;2;
49454;PMS5003;49011;64.658;21.218;2022-07-03T14:20:54;0;0;
49454;PMS5003;49011;64.658;21.218;2022-07-03T14:23:21;1;1;
49454;PMS5003;49011;64.658;21.218;2022-07-03T14:25:48;1;1;
49454;PMS5003;49011;64.658;21.218;2022-07-03T14:28:15;1;1;
49454;PMS5003;49011;64.658;21.218;2022-07-03T14:30:43;0;0;
49454;PMS5003;49011;64.658;21.218;2022-07-03T14:33:10;1;1;
49454;PMS5003;49011;64.658;21.218;2022-07-03T14:35:37;2;2;
49454;PMS5003;49011;64.658;21.218;2022-07-03T14:38:04;1;1;
49454;PMS5003;49011;64.658;21.218;2022-07-03T14:40:31;1;1;
49454;PMS5003;49011;64.658;21.218;2022-07-03T14:42:59;2;2;
49454;PMS5003;49011;64.658;21.218;2022-07-03T14:45:26;1;1;
49454;PMS5003;49011;64.658;21.218;2022-07-03T14:47:53;1;1;
49454;PMS5003;49011;64.658;21.218;2022-07-03T14:50:21;1;1;
49454;PMS5003;49011;64.658;21.218;2022-07-03T14:52:49;2;2;
49454;PMS5003;49011;64.658;21.218;2022-07-03T14:55:16;1;1;
49454;PMS5003;49011;64.658;21.218;2022-07-03T14:57:47;2;2;
49454;PMS5003;49011;64.658;21.218;2022-07-03T15:00:23;1;1;
49454;PMS5003;49011;64.658;21.218;2022-07-03T15:03:04;2;2;
49454;PMS5003;49011;64.658;21.218;2022-07-03T15:05:33;2;2;
49454;PMS5003;49011;64.658;21.218;2022-07-03T15:08:08;2;1;
49454;PMS5003;49011;64.658;21.218;2022-07-03T15:10:46;2;2;
49454;PMS5003;49011;64.658;21.218;2022-07-03T15:13:15;1;1;
49454;PMS5003;49011;64.658;21.218;2022-07-03T15:15:42;1;1;
49454;PMS5003;49011;64.658;21.218;2022-07-03T15:18:13;2;2;
49454;PMS5003;49011;64.658;21.218;2022-07-03T15:20:45;2;2;
49454;PMS5003;49011;64.658;21.218;2022-07-03T15:23:13;2;2;
49454;PMS5003;49011;64.658;21.218;2022-07-03T15:25:44;2;2;
49454;PMS5003;49011;64.658;21.218;2022-07-03T15:28:12;1;1;
49454;PMS5003;49011;64.658;21.218;2022-07-03T15:30:45;2;2;
49454;PMS5003;49011;64.658;21.218;2022-07-03T15:33:14;2;2;
49454;PMS5003;49011;64.658;21.218;2022-07-03T15:35:44;2;2;
49454;PMS5003;49011;64.658;21.218;2022-07-03T15:38:17;2;2;
49454;PMS5003;49011;64.658;21.218;2022-07-03T15:40:47;2;2;
49454;PMS5003;49011;64.658;21.218;2022-07-03T15:43:23;2;0;
49454;PMS5003;49011;64.658;21.218;2022-07-03T15:46:05;2;2;
49454;PMS5003;49011;64.658;21.218;2022-07-03T15:48:44;2;2;
49454;PMS5003;49011;64.658;21.218;2022-07-03T15:51:20;2;2;
49454;PMS5003;49011;64.658;21.218;2022-07-03T15:53:49;1;1;
49454;PMS5003;49011;64.658;21.218;2022-07-03T15:56:19;0;0;
49454;PMS5003;49011;64.658;21.218;2022-07-03T15:58:51;1;1;
49454;PMS5003;49011;64.658;21.218;2022-07-03T16:01:23;2;2;
49454;PMS5003;49011;64.658;21.218;2022-07-03T16:03:57;2;1;
49454;PMS5003;49011;64.658;21.218;2022-07-03T16:06:32;1;1;
49454;PMS5003;49011;64.658;21.218;2022-07-03T16:09:04;3;3;
49454;PMS5003;49011;64.658;21.218;2022-07-03T16:11:31;2;2;
49454;PMS5003;49011;64.658;21.218;2022-07-03T16:14:01;2;2;
49454;PMS5003;49011;64.658;21.218;2022-07-03T16:16:29;1;1;
49454;PMS5003;49011;64.658;21.218;2022-07-03T16:18:58;2;2;
49454;PMS5003;49011;64.658;21.218;2022-07-03T16:21:28;1;1;
49454;PMS5003;49011;64.658;21.218;2022-07-03T16:23:57;3;2;
49454;PMS5003;49011;64.658;21.218;2022-07-03T16:26:26;0;0;
49454;PMS5003;49011;64.658;21.218;2022-07-03T16:28:55;1;1;
49454;PMS5003;49011;64.658;21.218;2022-07-03T16:31:24;3;3;
49454;PMS5003;49011;64.658;21.218;2022-07-03T16:33:56;3;3;
49454;PMS5003;49011;64.658;21.218;2022-07-03T16:36:30;0;0;
49454;PMS5003;49011;64.658;21.218;2022-07-03T16:39:01;2;2;
49454;PMS5003;49011;64.658;21.218;2022-07-03T16:41:31;3;2;
49454;PMS5003;49011;64.658;21.218;2022-07-03T16:44:02;2;1;
49454;PMS5003;49011;64.658;21.218;2022-07-03T16:46:32;2;2;
49454;PMS5003;49011;64.658;21.218;2022-07-03T16:49:00;1;1;
49454;PMS5003;49011;64.658;21.218;2022-07-03T16:51:33;1;1;
49454;PMS5003;49011;64.658;21.218;2022-07-03T16:54:01;2;2;